Time;durP1;ratioP1;P1;durP2;ratioP2;P2;SDS_P1;SDS_P2;PMS_P1;PMS_P2;Temp;Humidity;BMP_temperature;BMP_pressure;BME280_temperature;BME280_humidity;BME280_pressure;Samples;Min_cycle;Max_cycle;Signal;HPM_P1;HPM_P2
2024/01/14 00:03:27;;;;;;;26.83;8.67;;;-1.90;99.90;;;-3.83;100.00;99786.47;10212541;28;96504;-85
2024/01/14 00:08:30;;;;;;;20.00;7.33;;;-1.80;99.90;;;-3.75;100.00;99786.00;10233599;28;96670;-86
2024/01/14 00:13:34;;;;;;;15.20;6.80;;;-1.80;99.90;;;-3.67;100.00;99781.22;10223072;28;96615;-85
2024/01/14 00:18:37;;;;;;;14.70;6.63;;;-1.70;99.90;;;-3.64;100.00;99773.25;10218057;28;96925;-85
2024/01/14 00:23:41;;;;;;;18.20;7.30;;;-1.70;99.90;;;-3.64;100.00;99761.09;10233219;28;97746;-84
2024/01/14 00:28:44;;;;;;;21.93;6.90;;;-1.60;99.90;;;-3.48;100.00;99762.78;10206430;28;96472;-85
2024/01/14 00:33:49;;;;;;;16.63;5.83;;;-1.60;99.90;;;-3.43;100.00;99763.38;10207591;28;96661;-85
2024/01/14 00:38:53;;;;;;;14.20;5.00;;;-1.50;99.90;;;-3.42;100.00;99763.25;10231410;28;96501;-85
2024/01/14 00:43:56;;;;;;;12.17;5.20;;;-1.50;99.90;;;-3.36;100.00;99775.06;10216624;28;96623;-86
2024/01/14 00:49:00;;;;;;;17.20;6.43;;;-1.40;99.90;;;-3.28;100.00;99771.09;10230133;28;96813;-84
2024/01/14 00:54:04;;;;;;;16.33;6.23;;;-1.40;99.90;;;-3.29;100.00;99773.81;10209816;28;96571;-85
2024/01/14 00:59:08;;;;;;;17.63;7.83;;;-1.30;99.90;;;-3.34;100.00;99755.03;10211648;28;96510;-85
2024/01/14 01:04:12;;;;;;;17.87;7.60;;;-1.40;99.90;;;-3.42;100.00;99749.44;10213824;28;96556;-86
2024/01/14 01:09:16;;;;;;;16.97;7.57;;;-1.50;99.90;;;-3.44;100.00;99744.34;10195497;28;96509;-85
2024/01/14 01:14:19;;;;;;;20.23;7.40;;;-1.50;99.90;;;-3.55;100.00;99724.19;10216189;28;96987;-85
2024/01/14 01:19:23;;;;;;;18.07;6.77;;;-1.50;99.90;;;-3.55;100.00;99725.94;10207077;28;96740;-86
2024/01/14 01:24:26;;;;;;;21.73;7.33;;;-1.60;99.90;;;-3.63;100.00;99726.41;10245013;28;96594;-86
2024/01/14 01:29:30;;;;;;;20.13;7.33;;;-1.60;99.90;;;-3.73;100.00;99725.25;10179028;28;96692;-85
2024/01/14 01:34:34;;;;;;;18.63;7.63;;;-1.70;99.90;;;-3.79;100.00;99720.44;10242105;28;96498;-85
2024/01/14 01:39:38;;;;;;;19.23;6.40;;;-1.80;99.90;;;-3.86;100.00;99711.31;10204733;28;97552;-86
2024/01/14 01:44:41;;;;;;;20.10;6.77;;;-1.80;99.90;;;-3.95;100.00;99697.13;10213841;28;96560;-86
2024/01/14 01:49:46;;;;;;;16.50;6.27;;;-1.90;99.90;;;-3.96;100.00;99684.22;10212307;28;96698;-85
2024/01/14 01:54:51;;;;;;;11.10;5.03;;;-1.90;99.90;;;-3.96;100.00;99702.38;10227943;28;96692;-85
2024/01/14 02:00:01;;;;;;;16.40;6.63;;;-1.90;99.90;;;-3.90;100.00;99689.94;10223738;28;96587;-86
2024/01/14 02:05:09;;;;;;;17.03;7.53;;;-1.90;99.90;;;-3.92;100.00;99673.59;10206510;28;97998;-86
2024/01/14 02:10:14;;;;;;;16.80;7.50;;;-1.90;99.90;;;-3.94;100.00;99666.81;10223047;28;96580;-85
2024/01/14 02:15:18;;;;;;;17.73;7.17;;;-1.90;99.90;;;-3.88;100.00;99674.25;10211238;28;98044;-86
2024/01/14 02:20:22;;;;;;;17.07;7.00;;;-1.90;99.90;;;-3.90;100.00;99661.38;10233885;28;98252;-86
2024/01/14 02:25:31;;;;;;;18.07;6.53;;;-1.90;99.90;;;-3.89;100.00;99657.84;10209402;28;96653;-85
2024/01/14 02:30:46;;;;;;;14.20;5.47;;;-1.90;99.90;;;-3.83;100.00;99657.47;10226045;28;97046;-86
2024/01/14 02:35:51;;;;;;;14.63;6.20;;;-1.80;99.90;;;-3.81;100.00;99662.56;10195079;28;96929;-86
2024/01/14 02:41:00;;;;;;;17.40;7.00;;;-1.80;99.90;;;-3.79;100.00;99666.75;10218924;28;96535;-86
2024/01/14 02:46:04;;;;;;;13.93;5.77;;;-1.80;99.90;;;-3.68;100.00;99637.56;10182505;28;96549;-85
2024/01/14 02:51:08;;;;;;;16.73;6.33;;;-1.70;99.90;;;-3.62;100.00;99629.38;10199421;28;96649;-86
2024/01/14 02:56:14;;;;;;;9.70;4.87;;;-1.60;99.90;;;-3.53;100.00;99638.41;10174465;28;96773;-86
2024/01/14 03:01:20;;;;;;;14.17;6.13;;;-1.60;99.90;;;-3.41;100.00;99635.06;10225380;28;98069;-86
2024/01/14 03:06:24;;;;;;;12.80;5.53;;;-1.50;99.90;;;-3.30;100.00;99624.88;10210893;28;96418;-86
2024/01/14 03:11:28;;;;;;;10.17;5.47;;;-1.30;99.90;;;-3.20;100.00;99603.50;10201774;28;96601;-85
2024/01/14 03:16:32;;;;;;;12.73;5.10;;;-1.30;99.90;;;-3.11;100.00;99614.16;10216167;28;96651;-85
2024/01/14 03:21:36;;;;;;;11.93;5.23;;;-1.20;99.90;;;-3.03;100.00;99605.88;10211310;28;96432;-86
2024/01/14 03:26:42;;;;;;;14.70;4.87;;;-1.10;99.90;;;-2.97;100.00;99595.09;10204044;28;96467;-85
2024/01/14 03:31:47;;;;;;;13.30;5.30;;;-1.10;99.90;;;-2.93;100.00;99609.56;10216862;28;96514;-85
2024/01/14 03:36:53;;;;;;;9.87;4.43;;;-1.00;99.90;;;-2.93;100.00;99606.13;10210284;28;96954;-85
2024/01/14 03:41:59;;;;;;;15.90;5.73;;;-1.00;99.90;;;-2.97;100.00;99606.31;10208943;28;97702;-85
2024/01/14 03:47:03;;;;;;;10.87;5.10;;;-1.00;99.90;;;-2.92;100.00;99605.19;10225012;28;96708;-85
2024/01/14 03:52:07;;;;;;;16.33;5.43;;;-1.00;99.90;;;-2.97;100.00;99589.88;10224131;28;97051;-85
2024/01/14 03:57:16;;;;;;;11.27;5.63;;;-1.00;99.90;;;-2.91;100.00;99589.50;10188496;28;98085;-85
2024/01/14 04:02:21;;;;;;;12.03;5.57;;;-1.00;99.90;;;-2.88;100.00;99570.25;10209675;28;96814;-86
2024/01/14 04:07:28;;;;;;;11.73;4.73;;;-1.00;99.90;;;-2.87;100.00;99559.78;10182186;28;96579;-85
2024/01/14 04:12:38;;;;;;;15.97;5.67;;;-1.00;99.90;;;-2.91;100.00;99570.47;10209794;28;96648;-85
2024/01/14 04:17:42;;;;;;;11.80;5.53;;;-1.00;99.90;;;-3.05;100.00;99572.19;10222562;28;96759;-85
2024/01/14 04:22:46;;;;;;;14.33;5.67;;;-1.10;99.90;;;-3.08;100.00;99572.38;10215764;28;98002;-85
2024/01/14 04:27:50;;;;;;;17.33;5.90;;;-1.10;99.90;;;-3.08;100.00;99577.56;10216560;28;96485;-85
2024/01/14 04:32:54;;;;;;;13.73;4.77;;;-1.10;99.90;;;-3.10;100.00;99587.22;10213909;28;98154;-85
2024/01/14 04:37:59;;;;;;;15.47;5.57;;;-1.10;99.90;;;-3.19;100.00;99574.81;10231578;28;96858;-85
2024/01/14 04:43:06;;;;;;;15.47;6.13;;;-1.20;99.90;;;-3.27;100.00;99564.06;10216448;28;96399;-86
2024/01/14 04:48:10;;;;;;;17.63;6.20;;;-1.30;99.90;;;-3.34;100.00;99544.59;10214211;28;98108;-85
2024/01/14 04:53:14;;;;;;;14.63;5.93;;;-1.30;99.90;;;-3.29;100.00;99573.72;10214737;28;96506;-86
2024/01/14 04:58:18;;;;;;;17.03;5.70;;;-1.30;99.90;;;-3.32;100.00;99573.91;10216220;28;96413;-85
2024/01/14 05:03:22;;;;;;;18.37;6.40;;;-1.40;99.90;;;-3.43;100.00;99561.56;10197972;28;98070;-87
2024/01/14 05:08:26;;;;;;;18.03;6.30;;;-1.40;99.90;;;-3.41;100.00;99577.09;10224455;28;96495;-85
2024/01/14 05:13:29;;;;;;;20.17;6.80;;;-1.40;99.90;;;-3.46;100.00;99566.97;10214371;28;96975;-85
2024/01/14 05:18:33;;;;;;;19.83;7.23;;;-1.50;99.90;;;-3.53;100.00;99570.88;10212877;28;96609;-86
2024/01/14 05:23:36;;;;;;;21.03;6.77;;;-1.50;99.90;;;-3.55;100.00;99560.56;10226041;28;96971;-86
2024/01/14 05:28:40;;;;;;;16.23;6.07;;;-1.60;99.90;;;-3.55;100.00;99568.34;10214097;28;96624;-86
2024/01/14 05:33:43;;;;;;;14.70;5.73;;;-1.60;99.90;;;-3.50;100.00;99560.28;10234316;28;98791;-86
2024/01/14 05:38:47;;;;;;;17.00;6.37;;;-1.50;99.90;;;-3.46;100.00;99555.75;10213494;28;98206;-86
2024/01/14 05:43:51;;;;;;;16.77;6.53;;;-1.50;99.90;;;-3.49;100.00;99561.94;10211900;28;96609;-86
2024/01/14 05:48:54;;;;;;;19.57;7.33;;;-1.50;99.90;;;-3.51;100.00;99563.81;10195558;28;96472;-85
2024/01/14 05:53:58;;;;;;;23.80;8.37;;;-1.50;99.90;;;-3.51;100.00;99564.66;10238483;28;99019;-87
2024/01/14 05:59:04;;;;;;;23.70;7.57;;;-1.60;99.90;;;-3.51;100.00;99556.03;10227179;28;97713;-87
2024/01/14 06:04:08;;;;;;;22.63;8.10;;;-1.50;99.90;;;-3.51;100.00;99548.22;10202499;28;97890;-88
2024/01/14 06:09:12;;;;;;;30.77;8.37;;;-1.50;99.90;;;-3.47;100.00;99541.09;10223467;28;98323;-86
2024/01/14 06:14:15;;;;;;;20.20;6.73;;;-1.50;99.90;;;-3.46;100.00;99534.97;10196420;28;96601;-87
2024/01/14 06:19:19;;;;;;;26.47;7.50;;;-1.50;99.90;;;-3.38;100.00;99559.53;10189475;28;96637;-87
2024/01/14 06:24:23;;;;;;;22.53;8.57;;;-1.50;99.90;;;-3.41;100.00;99545.91;10200576;28;96554;-86
2024/01/14 06:29:26;;;;;;;26.90;8.77;;;-1.40;99.90;;;-3.39;100.00;99538.84;10244345;28;96339;-86
2024/01/14 06:34:30;;;;;;;23.23;8.33;;;-1.40;99.90;;;-3.37;100.00;99547.38;10209609;28;98087;-86
2024/01/14 06:39:34;;;;;;;21.20;7.60;;;-1.40;99.90;;;-3.28;100.00;99554.59;10227410;28;96588;-86
2024/01/14 06:44:38;;;;;;;24.90;8.57;;;-1.30;99.90;;;-3.25;100.00;99554.41;10211440;28;96456;-86
2024/01/14 06:49:42;;;;;;;24.87;8.33;;;-1.30;99.90;;;-3.19;100.00;99541.00;10226728;28;96598;-86
2024/01/14 06:54:46;;;;;;;19.83;6.73;;;-1.30;99.90;;;-3.16;100.00;99537.41;10212675;28;97861;-88
2024/01/14 06:59:50;;;;;;;22.13;7.47;;;-1.20;99.90;;;-3.05;100.00;99533.19;10227215;28;96690;-86
2024/01/14 07:04:53;;;;;;;28.83;9.17;;;-1.20;99.90;;;-3.00;100.00;99538.06;10211783;28;96570;-86
2024/01/14 07:09:58;;;;;;;19.60;8.27;;;-1.10;99.90;;;-2.88;100.00;99549.47;10212985;28;96411;-85
2024/01/14 07:15:01;;;;;;;24.53;10.27;;;-1.00;99.90;;;-2.83;100.00;99556.03;10212143;28;97539;-86
2024/01/14 07:20:05;;;;;;;25.20;9.67;;;-0.90;99.90;;;-2.75;100.00;99552.97;10216598;28;96557;-85
2024/01/14 07:25:10;;;;;;;28.97;8.73;;;-0.90;99.90;;;-2.73;100.00;99549.31;10210310;28;96805;-87
2024/01/14 07:30:17;;;;;;;28.40;9.47;;;-0.80;99.90;;;-2.65;100.00;99551.41;10210052;28;96614;-86
2024/01/14 07:35:20;;;;;;;20.53;8.07;;;-0.80;99.90;;;-2.63;100.00;99552.16;10210806;28;96599;-86
2024/01/14 07:40:24;;;;;;;23.47;8.60;;;-0.70;99.90;;;-2.63;100.00;99546.13;10225502;28;97710;-86
2024/01/14 07:45:28;;;;;;;28.07;10.27;;;-0.70;99.90;;;-2.55;100.00;99557.69;10210897;28;96306;-86
2024/01/14 07:50:31;;;;;;;28.33;9.13;;;-0.70;99.90;;;-2.43;100.00;99559.47;10225875;28;97645;-86
2024/01/14 07:55:35;;;;;;;27.27;10.00;;;-0.50;99.90;;;-2.36;100.00;99549.50;10210842;28;96772;-86
2024/01/14 08:00:38;;;;;;;23.97;8.43;;;-0.50;99.90;;;-2.26;100.00;99549.72;10226273;28;96455;-88
2024/01/14 08:05:57;;;;;;;27.20;9.90;;;-0.40;99.90;;;-2.24;100.00;99537.44;10210057;28;96698;-86
2024/01/14 08:11:02;;;;;;;23.90;8.07;;;-0.30;99.90;;;-2.10;100.00;99563.34;10193575;28;96578;-87
2024/01/14 08:16:05;;;;;;;20.00;7.53;;;-0.20;99.90;;;-1.97;100.00;99561.63;10209131;28;96377;-86
2024/01/14 08:21:10;;;;;;;23.23;8.90;;;-0.10;99.90;;;-1.82;100.00;99564.09;10222070;28;96609;-86
2024/01/14 08:26:14;;;;;;;21.77;7.80;;;0.10;99.90;;;-1.70;100.00;99565.88;10227628;28;96616;-86
2024/01/14 08:31:19;;;;;;;19.37;8.07;;;0.20;99.90;;;-1.64;99.69;99561.06;10210374;28;96655;-86
2024/01/14 08:36:23;;;;;;;21.03;7.60;;;0.20;99.90;;;-1.45;97.94;99562.41;10239864;28;96529;-85
2024/01/14 08:41:27;;;;;;;21.70;7.40;;;0.40;99.90;;;-1.17;96.08;99564.72;10208476;28;97290;-86
2024/01/14 08:46:31;;;;;;;21.50;7.13;;;0.60;99.90;;;-0.97;93.26;99578.13;10224222;28;96699;-85
2024/01/14 08:51:35;;;;;;;17.43;7.57;;;0.80;99.90;;;-0.68;93.42;99576.03;10224634;28;96614;-86
2024/01/14 08:56:39;;;;;;;15.53;7.43;;;1.00;99.90;;;-0.49;90.87;99578.13;10202613;28;96912;-85
2024/01/14 09:01:43;;;;;;;17.80;7.27;;;1.10;99.90;;;-0.29;89.75;99586.16;10212022;28;96657;-86
2024/01/14 09:06:47;;;;;;;16.63;7.10;;;1.30;99.90;;;-0.03;88.74;99576.34;10190845;28;96552;-87
2024/01/14 09:11:50;;;;;;;16.87;7.07;;;1.60;99.90;;;0.06;85.82;99564.41;10185300;28;96697;-86
2024/01/14 09:16:54;;;;;;;18.67;7.30;;;1.80;99.90;;;0.04;85.56;99578.50;10213719;28;96695;-85
2024/01/14 09:21:57;;;;;;;22.97;7.50;;;1.80;99.90;;;0.23;85.58;99570.94;10211978;28;97110;-86
2024/01/14 09:27:03;;;;;;;17.00;7.47;;;2.10;99.90;;;0.68;81.76;99566.53;10217841;28;97818;-86
2024/01/14 09:32:07;;;;;;;16.40;7.17;;;2.60;99.90;;;1.01;79.34;99567.44;10205634;28;97550;-87
2024/01/14 09:37:11;;;;;;;21.70;7.87;;;3.00;99.90;;;1.37;77.52;99562.81;10201834;28;96550;-86
2024/01/14 09:42:35;;;;;;;16.77;6.63;;;3.30;99.90;;;1.72;75.36;99557.31;10210286;28;97933;-86
2024/01/14 09:47:44;;;;;;;16.30;6.97;;;3.70;98.90;;;1.90;73.09;99549.69;10214358;28;96525;-86
2024/01/14 09:52:50;;;;;;;15.97;7.00;;;3.90;98.50;;;1.96;71.01;99550.00;10203071;28;96747;-86
2024/01/14 09:57:58;;;;;;;15.07;7.07;;;4.10;97.20;;;1.80;71.37;99554.88;10221949;28;97061;-86
2024/01/14 10:03:03;;;;;;;15.37;6.27;;;3.90;96.90;;;1.59;72.57;99545.22;10228720;28;96533;-86
2024/01/14 10:08:08;;;;;;;16.70;6.50;;;3.60;97.00;;;1.52;73.27;99523.13;10228442;28;96405;-84
2024/01/14 10:13:11;;;;;;;14.90;6.33;;;3.40;97.30;;;1.39;73.46;99519.84;10223539;28;97006;-85
2024/01/14 10:18:16;;;;;;;13.47;6.43;;;3.30;97.30;;;1.18;73.75;99506.72;10243235;28;96540;-86
2024/01/14 10:23:23;;;;;;;18.73;5.97;;;3.10;97.10;;;1.14;73.57;99505.34;10227843;28;96680;-85
2024/01/14 10:28:39;;;;;;;16.80;7.33;;;3.10;97.00;;;1.04;74.73;99499.19;10221827;28;97865;-85
2024/01/14 10:33:44;;;;;;;15.37;7.10;;;2.90;97.40;;;1.11;75.81;99508.19;10210750;28;96575;-84
2024/01/14 10:38:52;;;;;;;12.87;5.90;;;2.90;97.50;;;1.20;74.78;99496.97;10211773;28;96773;-85
2024/01/14 10:43:56;;;;;;;13.10;5.60;;;3.00;97.40;;;1.35;74.52;99500.13;10212535;28;96457;-85
2024/01/14 10:49:08;;;;;;;15.67;6.87;;;3.10;97.30;;;1.49;73.41;99493.72;10234399;28;96467;-85
2024/01/14 10:54:27;;;;;;;15.43;6.47;;;3.30;97.10;;;1.81;72.37;99483.19;10223624;28;96535;-85
2024/01/14 10:59:35;;;;;;;27.40;12.93;;;3.60;97.20;;;2.66;70.36;99473.16;10219327;28;96768;-85
2024/01/14 11:04:40;;;;;;;11.93;5.90;;;4.60;97.20;;;3.17;65.17;99468.66;10205774;28;96599;-86
2024/01/14 11:09:45;;;;;;;15.53;5.83;;;5.10;95.20;;;3.08;62.97;99478.19;10219257;28;96568;-86
2024/01/14 11:15:06;;;;;;;12.43;5.37;;;5.10;93.70;;;3.01;64.15;99466.59;10222208;28;97716;-85
2024/01/14 11:20:16;;;;;;;11.90;5.43;;;4.90;94.10;;;2.82;63.18;99480.53;10209214;28;96498;-86
2024/01/14 11:25:22;;;;;;;8.17;4.20;;;4.80;93.20;;;2.46;63.97;99468.84;10212370;28;96637;-85
2024/01/14 11:31:01;;;;;;;11.40;5.27;;;4.40;93.30;;;2.07;66.10;99452.97;10223393;28;96794;-84
2024/01/14 11:36:10;;;;;;;11.90;5.03;;;4.10;93.80;;;1.82;67.29;99456.03;10209818;28;96755;-85
2024/01/14 11:41:35;;;;;;;11.23;5.07;;;3.80;94.10;;;1.48;68.67;99440.53;10235500;28;96482;-85
2024/01/14 11:46:46;;;;;;;9.87;4.00;;;3.40;94.60;;;1.31;69.90;99439.31;10220964;28;96570;-86
2024/01/14 11:52:06;;;;;;;12.17;4.33;;;3.20;94.90;;;1.17;71.30;99430.97;10222236;28;98451;-87
2024/01/14 11:57:25;;;;;;;16.43;6.13;;;3.10;95.20;;;1.11;71.74;99426.22;10208050;28;96508;-86
2024/01/14 12:02:29;;;;;;;12.90;5.40;;;3.00;95.50;;;1.10;71.41;99422.78;10227194;28;96487;-86
2024/01/14 12:07:33;;;;;;;10.47;4.70;;;3.00;95.40;;;1.10;72.41;99408.88;10224614;28;96829;-86
2024/01/14 12:12:37;;;;;;;11.77;5.87;;;2.90;95.60;;;1.16;72.51;99417.06;10231644;28;96914;-85
2024/01/14 12:18:00;;;;;;;11.43;5.07;;;3.00;95.90;;;1.26;72.77;99415.34;10242037;28;96559;-86
2024/01/14 12:23:06;;;;;;;18.83;5.07;;;3.10;95.90;;;1.41;72.83;99394.88;10224968;28;96597;-86
2024/01/14 12:28:11;;;;;;;11.17;4.40;;;3.20;96.40;;;1.51;70.90;99394.94;10234564;28;98047;-86
2024/01/14 12:33:14;;;;;;;10.70;3.97;;;3.30;95.70;;;1.55;70.65;99388.47;10218302;28;96806;-86
2024/01/14 12:38:18;;;;;;;10.23;4.37;;;3.30;95.80;;;1.54;69.60;99381.59;10229556;28;96615;-85
2024/01/14 12:43:22;;;;;;;10.87;4.37;;;3.30;95.20;;;1.51;69.57;99377.44;10248589;28;97053;-85
2024/01/14 12:48:25;;;;;;;11.87;3.97;;;3.30;95.30;;;1.49;69.49;99381.97;10222793;28;96715;-84
2024/01/14 12:53:32;;;;;;;10.10;4.83;;;3.30;95.20;;;1.48;69.98;99377.69;10211572;28;96588;-84
2024/01/14 12:58:36;;;;;;;10.97;4.50;;;3.30;95.50;;;1.47;69.80;99370.81;10231301;28;98492;-84
2024/01/14 13:03:40;;;;;;;12.10;5.30;;;3.30;95.30;;;1.49;70.94;99370.66;10221767;28;96738;-84
2024/01/14 13:08:44;;;;;;;13.90;6.23;;;3.30;95.80;;;1.47;70.65;99375.22;10216616;28;98405;-84
2024/01/14 13:13:47;;;;;;;10.97;4.47;;;3.30;95.70;;;1.48;71.43;99382.94;10236342;28;96346;-84
2024/01/14 13:18:50;;;;;;;12.03;4.90;;;3.30;95.90;;;1.48;71.45;99384.72;10235719;28;96423;-84
2024/01/14 13:23:54;;;;;;;12.33;5.07;;;3.30;96.00;;;1.44;71.45;99375.47;10214053;28;96737;-84
2024/01/14 13:29:11;;;;;;;11.13;4.37;;;3.30;95.70;;;1.43;71.70;99368.56;10238362;28;96585;-84
2024/01/14 13:34:15;;;;;;;12.50;5.63;;;3.20;95.90;;;1.36;71.42;99368.25;10215452;28;96534;-84
2024/01/14 13:39:19;;;;;;;10.70;4.83;;;3.20;95.70;;;1.36;71.75;99378.72;10234688;28;96506;-84
2024/01/14 13:44:23;;;;;;;11.93;5.23;;;3.20;96.00;;;1.32;72.12;99372.13;10265387;28;96552;-84
2024/01/14 13:49:28;;;;;;;12.47;4.77;;;3.10;95.90;;;1.29;72.62;99377.59;10202647;28;96411;-84
2024/01/14 13:54:31;;;;;;;10.27;4.63;;;3.10;96.10;;;1.26;72.26;99373.47;10227914;28;97086;-85
2024/01/14 13:59:36;;;;;;;20.70;7.53;;;3.10;95.90;;;1.23;72.74;99378.09;10229835;28;96599;-84
2024/01/14 14:04:41;;;;;;;20.67;6.87;;;3.00;96.00;;;1.16;73.31;99376.97;10208498;28;96519;-85
2024/01/14 14:09:52;;;;;;;13.20;5.43;;;3.00;96.40;;;1.11;73.49;99379.97;10210687;28;96503;-85
2024/01/14 14:14:56;;;;;;;13.57;5.77;;;2.90;96.50;;;1.02;74.01;99376.34;10214097;28;96414;-85
2024/01/14 14:20:01;;;;;;;11.53;4.90;;;2.90;96.90;;;0.91;74.85;99380.78;10213837;28;96444;-85
2024/01/14 14:25:06;;;;;;;12.00;5.10;;;2.80;96.60;;;0.84;75.26;99371.78;10264879;28;96538;-85
2024/01/14 14:30:11;;;;;;;11.73;5.13;;;2.70;96.70;;;0.75;76.23;99374.19;10252860;28;96524;-85
2024/01/14 14:35:20;;;;;;;12.33;5.27;;;2.60;96.60;;;0.66;76.96;99358.41;10201638;28;96527;-85
2024/01/14 14:40:24;;;;;;;9.90;4.60;;;2.50;97.20;;;0.56;77.48;99358.34;10212873;28;96559;-85
2024/01/14 14:45:28;;;;;;;11.13;4.73;;;2.40;97.30;;;0.49;78.13;99344.94;10218340;28;96575;-84
2024/01/14 14:50:32;;;;;;;12.37;4.90;;;2.40;97.50;;;0.41;78.67;99344.72;10207992;28;96854;-84
2024/01/14 14:55:39;;;;;;;13.07;4.93;;;2.30;97.70;;;0.31;79.17;99346.44;10199421;28;96574;-84
2024/01/14 15:00:45;;;;;;;9.33;4.30;;;2.20;97.40;;;0.17;80.24;99360.59;10202580;28;98095;-84
2024/01/14 15:05:48;;;;;;;10.33;4.83;;;2.10;97.60;;;0.04;80.79;99357.28;10193810;28;98200;-84
2024/01/14 15:10:52;;;;;;;14.40;5.80;;;2.00;97.60;;;-0.11;81.29;99358.53;10217404;28;97009;-84
2024/01/14 15:15:58;;;;;;;12.13;4.63;;;1.80;97.90;;;-0.30;81.95;99357.34;10204343;28;96638;-84
2024/01/14 15:21:04;;;;;;;13.53;5.80;;;1.70;98.10;;;-0.47;82.58;99357.81;10223845;28;96739;-84
2024/01/14 15:26:09;;;;;;;23.90;8.73;;;1.50;98.10;;;-0.64;83.88;99355.69;10225795;28;96459;-84
2024/01/14 15:31:12;;;;;;;60.83;17.80;;;1.40;98.40;;;-0.87;83.83;99350.41;10211342;28;97831;-84
2024/01/14 15:36:19;;;;;;;37.37;12.63;;;1.20;98.50;;;-1.11;84.41;99352.25;10209615;28;96746;-83
2024/01/14 15:41:24;;;;;;;99.43;31.77;;;1.00;98.70;;;-1.42;85.34;99349.31;10209992;28;97944;-83
2024/01/14 15:46:28;;;;;;;71.33;25.80;;;0.80;99.00;;;-1.56;86.26;99357.31;10203067;28;96568;-84
2024/01/14 15:51:32;;;;;;;60.97;20.37;;;0.60;99.20;;;-1.71;87.90;99353.22;10215813;28;96684;-82
2024/01/14 15:56:35;;;;;;;54.93;19.50;;;0.50;99.40;;;-1.86;89.94;99346.50;10199327;28;96618;-83
2024/01/14 16:01:40;;;;;;;30.53;12.43;;;0.30;99.90;;;-2.05;90.47;99353.00;10211021;28;96391;-83
2024/01/14 16:06:46;;;;;;;42.53;16.23;;;0.10;99.80;;;-2.21;91.04;99349.84;10240041;28;96455;-82
2024/01/14 16:11:50;;;;;;;95.13;28.93;;;0.00;99.90;;;-2.37;91.77;99344.88;10219046;28;96424;-83
2024/01/14 16:16:54;;;;;;;122.57;36.70;;;-0.20;99.90;;;-2.55;92.80;99333.97;10215979;28;96500;-83
2024/01/14 16:21:57;;;;;;;35.13;12.60;;;-0.40;99.90;;;-2.53;98.29;99339.06;10215889;28;96508;-83
2024/01/14 16:27:01;;;;;;;55.93;16.27;;;-0.40;99.90;;;-2.47;98.31;99328.22;10216149;28;96607;-83
2024/01/14 16:32:05;;;;;;;67.20;19.33;;;-0.40;99.90;;;-2.44;98.61;99341.88;10216067;28;98152;-83
2024/01/14 16:37:10;;;;;;;42.20;14.83;;;-0.30;99.90;;;-2.47;98.50;99349.88;10215800;28;96444;-83
2024/01/14 16:42:15;;;;;;;44.73;16.37;;;-0.40;99.90;;;-2.54;99.43;99348.63;10216517;28;96621;-84
2024/01/14 16:47:19;;;;;;;55.50;18.83;;;-0.40;99.90;;;-2.64;99.64;99333.75;10215820;28;96476;-84
2024/01/14 16:52:24;;;;;;;42.63;15.37;;;-0.50;99.90;;;-2.73;99.82;99337.84;10230536;28;96533;-84
2024/01/14 16:57:28;;;;;;;55.17;17.77;;;-0.60;99.90;;;-2.86;100.00;99343.03;10215870;28;96616;-86
2024/01/14 17:02:32;;;;;;;53.07;16.13;;;-0.70;99.90;;;-2.98;100.00;99336.91;10230102;28;96883;-85
2024/01/14 17:07:37;;;;;;;67.10;20.37;;;-0.80;99.90;;;-3.07;100.00;99341.88;10229043;28;97823;-86
2024/01/14 17:12:41;;;;;;;47.43;17.33;;;-0.90;99.90;;;-3.20;100.00;99334.06;10213721;28;96485;-85
2024/01/14 17:17:45;;;;;;;34.70;12.33;;;-1.00;99.90;;;-3.27;100.00;99327.63;10214632;28;96600;-85
2024/01/14 17:22:49;;;;;;;36.17;13.27;;;-1.10;99.90;;;-3.32;100.00;99327.09;10230589;28;96476;-85
2024/01/14 17:27:55;;;;;;;32.17;11.70;;;-1.10;99.90;;;-3.39;100.00;99323.22;10214954;28;96785;-85
2024/01/14 17:32:59;;;;;;;30.17;10.83;;;-1.20;99.90;;;-3.40;100.00;99309.41;10228716;28;96425;-85
2024/01/14 17:38:04;;;;;;;37.57;13.67;;;-1.20;99.90;;;-3.40;100.00;99311.19;10216849;28;96642;-85
2024/01/14 17:43:07;;;;;;;61.40;20.00;;;-1.20;99.90;;;-3.46;100.00;99314.19;10228566;28;96585;-84
2024/01/14 17:48:12;;;;;;;45.47;14.67;;;-1.20;99.90;;;-3.50;100.00;99306.56;10214340;28;96400;-85
2024/01/14 17:53:17;;;;;;;47.50;16.70;;;-1.30;99.90;;;-3.52;100.00;99313.66;10215097;28;97444;-85
2024/01/14 17:58:22;;;;;;;57.87;20.87;;;-1.30;99.90;;;-3.56;100.00;99306.97;10213259;28;96806;-85
2024/01/14 18:03:26;;;;;;;31.33;12.73;;;-1.40;99.90;;;-3.63;100.00;99305.72;10213295;28;96454;-85
2024/01/14 18:08:32;;;;;;;33.77;13.03;;;-1.50;99.90;;;-3.65;100.00;99307.59;10214140;28;96547;-85
2024/01/14 18:13:36;;;;;;;23.17;9.10;;;-1.50;99.90;;;-3.65;100.00;99305.00;10212104;28;96575;-85
2024/01/14 18:18:42;;;;;;;23.57;9.37;;;-1.50;99.90;;;-3.64;100.00;99304.06;10211877;28;96567;-85
2024/01/14 18:23:47;;;;;;;26.97;10.70;;;-1.50;99.90;;;-3.69;100.00;99306.13;10211674;28;96557;-84
2024/01/14 18:28:54;;;;;;;40.63;14.43;;;-1.50;99.90;;;-3.72;100.00;99295.09;10208892;28;96619;-86
2024/01/14 18:34:03;;;;;;;62.83;20.43;;;-1.50;99.90;;;-3.81;100.00;99292.16;10212797;28;96665;-84
2024/01/14 18:39:06;;;;;;;51.47;17.53;;;-1.60;99.90;;;-3.83;100.00;99294.03;10212321;28;96901;-85
2024/01/14 18:44:10;;;;;;;47.33;18.23;;;-1.60;99.90;;;-3.87;100.00;99291.72;10212392;28;96587;-84
2024/01/14 18:49:14;;;;;;;45.57;16.80;;;-1.60;99.90;;;-3.93;100.00;99289.53;10219305;28;96434;-84
2024/01/14 18:54:17;;;;;;;35.30;15.00;;;-1.70;99.90;;;-3.93;100.00;99287.78;10211074;28;96479;-84
2024/01/14 18:59:21;;;;;;;29.70;12.33;;;-1.80;99.90;;;-3.89;100.00;99272.84;10210739;28;96489;-85
2024/01/14 19:04:25;;;;;;;23.50;11.03;;;-1.80;99.90;;;-3.79;100.00;99284.28;10212742;28;96772;-84
2024/01/14 19:09:28;;;;;;;21.67;8.80;;;-1.70;99.90;;;-3.74;100.00;99281.38;10212233;28;96427;-85
2024/01/14 19:14:32;;;;;;;30.03;11.77;;;-1.70;99.90;;;-3.72;100.00;99279.50;10210947;28;96527;-85
2024/01/14 19:19:36;;;;;;;50.60;16.17;;;-1.60;99.90;;;-3.58;100.00;99282.88;10208898;28;96550;-85
2024/01/14 19:24:43;;;;;;;39.37;13.43;;;-1.50;99.90;;;-3.46;100.00;99281.25;10211725;28;96374;-85
2024/01/14 19:29:46;;;;;;;28.03;10.53;;;-1.40;99.90;;;-3.43;100.00;99280.19;10225984;28;96677;-85
2024/01/14 19:34:50;;;;;;;28.07;11.40;;;-1.40;99.90;;;-3.50;100.00;99270.22;10209873;28;96937;-85
2024/01/14 19:39:54;;;;;;;28.53;9.87;;;-1.40;99.90;;;-3.56;100.00;99264.59;10225483;28;96472;-85
2024/01/14 19:44:57;;;;;;;30.87;12.03;;;-1.40;99.90;;;-3.57;100.00;99265.53;10209938;28;96473;-85
2024/01/14 19:50:01;;;;;;;39.27;13.40;;;-1.40;99.90;;;-3.48;100.00;99261.47;10241846;28;96621;-84
2024/01/14 19:55:06;;;;;;;36.10;13.03;;;-1.40;99.90;;;-3.37;100.00;99246.84;10241967;28;96830;-85
2024/01/14 20:00:13;;;;;;;31.93;11.57;;;-1.30;99.90;;;-3.30;100.00;99252.47;10228231;28;96953;-85
2024/01/14 20:05:17;;;;;;;29.43;11.93;;;-1.20;99.90;;;-3.13;100.00;99241.75;10209018;28;96543;-85
2024/01/14 20:10:21;;;;;;;29.57;10.97;;;-1.10;99.90;;;-3.08;100.00;99236.25;10206242;28;96995;-86
2024/01/14 20:15:25;;;;;;;65.57;23.57;;;-1.00;99.90;;;-3.22;100.00;99232.00;10219474;28;96847;-84
2024/01/14 20:20:29;;;;;;;45.50;20.47;;;-1.10;99.90;;;-3.36;100.00;99226.91;10202308;28;96684;-84
2024/01/14 20:25:32;;;;;;;58.97;23.77;;;-1.20;99.90;;;-3.50;100.00;99222.63;10202815;28;96753;-86
2024/01/14 20:30:36;;;;;;;54.57;21.90;;;-1.30;99.90;;;-3.67;100.00;99210.78;10206493;28;98148;-85
2024/01/14 20:35:42;;;;;;;75.67;30.60;;;-1.50;99.90;;;-3.82;100.00;99206.63;10203065;28;99827;-83
2024/01/14 20:40:45;;;;;;;80.00;32.17;;;-1.60;99.90;;;-3.88;100.00;99200.06;10203573;28;97467;-84
2024/01/14 20:45:49;;;;;;;96.50;33.90;;;-1.70;99.90;;;-4.00;100.00;99190.47;10221795;28;96632;-83
2024/01/14 20:50:53;;;;;;;73.37;27.07;;;-1.80;99.90;;;-4.00;100.00;99192.25;10203957;28;99028;-84
2024/01/14 20:55:56;;;;;;;70.10;26.73;;;-1.90;99.90;;;-4.09;100.00;99188.47;10210850;28;98552;-84